createdAt,value
2018-05-31T00:01:43.354Z,34.08
2018-05-31T00:04:10.833Z,33.55
2018-05-31T00:06:39.077Z,34.95
2018-05-31T00:09:06.575Z,32.88
2018-05-31T00:11:34.826Z,34.45
2018-05-31T00:14:02.321Z,38.05
2018-05-31T00:16:29.819Z,35.05
2018-05-31T00:18:57.332Z,38.20
2018-05-31T00:21:24.836Z,36.42
2018-05-31T00:23:52.343Z,38.58
2018-05-31T00:26:19.874Z,35.92
2018-05-31T00:28:47.368Z,38.22
2018-05-31T00:31:14.854Z,36.80
2018-05-31T00:33:42.342Z,38.33
2018-05-31T00:36:09.854Z,37.53
2018-05-31T00:38:37.322Z,37.92
2018-05-31T00:41:04.807Z,36.53
2018-05-31T00:43:32.299Z,35.65
2018-05-31T00:46:00.558Z,37.45
2018-05-31T00:48:28.039Z,38.20
2018-05-31T00:50:55.556Z,38.63
2018-05-31T00:53:23.094Z,41.00
2018-05-31T00:56:02.438Z,42.20
2018-05-31T00:58:29.933Z,43.05
2018-05-31T01:00:58.187Z,41.97
2018-05-31T01:03:25.713Z,42.17
2018-05-31T01:05:53.213Z,42.25
2018-05-31T01:08:20.709Z,41.37
2018-05-31T01:10:48.202Z,40.92
2018-05-31T01:13:15.690Z,41.60
2018-05-31T01:15:43.180Z,42.28
2018-05-31T01:18:10.680Z,41.37
2018-05-31T01:20:38.158Z,43.70
2018-05-31T01:23:05.663Z,41.63
2018-05-31T01:25:33.142Z,41.03
2018-05-31T01:28:00.633Z,43.13
2018-05-31T01:30:28.157Z,42.38
2018-05-31T01:32:55.650Z,40.65
2018-05-31T01:35:23.143Z,39.20
2018-05-31T01:37:50.658Z,42.90
2018-05-31T01:40:18.175Z,42.67
2018-05-31T01:42:45.646Z,41.15
2018-05-31T01:45:13.135Z,43.42
2018-05-31T01:47:40.646Z,43.95
2018-05-31T01:50:08.122Z,44.13
2018-05-31T01:52:35.625Z,44.22
2018-05-31T01:55:03.967Z,43.33
2018-05-31T01:57:31.440Z,43.97
2018-05-31T01:59:58.922Z,43.83
2018-05-31T02:02:27.179Z,45.20
2018-05-31T02:04:54.699Z,45.22
2018-05-31T02:07:22.191Z,43.13
2018-05-31T02:09:49.655Z,44.00
2018-05-31T02:12:17.144Z,45.72
2018-05-31T02:14:44.667Z,44.92
2018-05-31T02:17:12.164Z,45.25
2018-05-31T02:19:39.679Z,42.95
2018-05-31T02:22:07.226Z,45.88
2018-05-31T02:24:34.706Z,46.05
2018-05-31T02:27:02.173Z,45.28
2018-05-31T02:29:30.422Z,47.28
2018-05-31T02:31:57.901Z,46.53
2018-05-31T02:34:26.149Z,45.83
2018-05-31T02:36:53.632Z,45.35
2018-05-31T02:39:21.893Z,45.60
2018-05-31T02:41:49.379Z,45.42
2018-05-31T02:44:17.644Z,45.63
2018-05-31T02:46:45.906Z,44.70
2018-05-31T02:49:13.388Z,45.10
2018-05-31T02:51:41.643Z,46.17
2018-05-31T02:54:09.914Z,43.85
2018-05-31T02:56:37.425Z,44.38
2018-05-31T02:59:04.931Z,43.78
2018-05-31T03:01:32.429Z,43.22
2018-05-31T03:03:59.929Z,44.72
2018-05-31T03:06:27.412Z,45.58
2018-05-31T03:08:54.954Z,43.95
2018-05-31T03:11:22.442Z,43.95
2018-05-31T03:13:50.699Z,42.88
2018-05-31T03:16:18.238Z,44.78
2018-05-31T03:18:45.715Z,44.35
2018-05-31T03:21:13.184Z,41.55
2018-05-31T03:23:41.447Z,41.70
2018-05-31T03:26:08.939Z,40.63
2018-05-31T03:28:36.447Z,42.65
2018-05-31T03:31:03.927Z,43.08
2018-05-31T03:33:32.173Z,41.90
2018-05-31T03:35:59.684Z,42.67
2018-05-31T03:38:27.196Z,43.55
2018-05-31T03:40:54.707Z,42.45
2018-05-31T03:43:22.206Z,40.63
2018-05-31T03:45:49.717Z,41.75
2018-05-31T03:48:17.202Z,41.97
2018-05-31T03:50:44.686Z,42.70
2018-05-31T03:53:12.158Z,41.00
2018-05-31T03:55:39.711Z,40.22
2018-05-31T03:58:07.196Z,40.60
2018-05-31T04:00:34.754Z,41.88
2018-05-31T04:03:02.994Z,40.83
2018-05-31T04:05:30.470Z,39.92
2018-05-31T04:07:57.995Z,40.63
2018-05-31T04:10:25.558Z,39.72
2018-05-31T04:12:53.029Z,39.03
2018-05-31T04:15:20.521Z,40.10
2018-05-31T04:17:48.783Z,41.30
2018-05-31T04:20:16.261Z,38.97
2018-05-31T04:22:43.750Z,38.28
2018-05-31T04:25:11.230Z,39.95
2018-05-31T04:27:38.716Z,38.92
2018-05-31T04:30:06.983Z,39.47
2018-05-31T04:32:34.477Z,37.33
2018-05-31T04:35:01.982Z,39.22
2018-05-31T04:37:29.492Z,37.78
2018-05-31T04:39:57.008Z,36.40
2018-05-31T04:42:24.517Z,36.55
2018-05-31T04:44:51.998Z,38.25
2018-05-31T04:47:19.478Z,36.92
2018-05-31T04:49:46.992Z,37.05
2018-05-31T04:52:14.466Z,37.85
2018-05-31T04:54:41.951Z,38.33
2018-05-31T04:57:09.431Z,37.80
2018-05-31T04:59:37.691Z,38.90
2018-05-31T05:02:05.225Z,38.38
2018-05-31T05:04:32.693Z,36.97
2018-05-31T05:07:00.230Z,37.60
2018-05-31T05:09:27.719Z,35.70
2018-05-31T05:11:55.244Z,36.03
2018-05-31T05:14:23.441Z,35.17
2018-05-31T05:16:50.935Z,33.92
2018-05-31T05:19:19.202Z,34.10
2018-05-31T05:21:47.454Z,35.10
2018-05-31T05:24:14.939Z,33.55
2018-05-31T05:26:43.186Z,33.80
2018-05-31T05:29:10.723Z,29.58
2018-05-31T05:31:38.231Z,33.63
2018-05-31T05:34:06.502Z,31.65
2018-05-31T05:36:34.746Z,30.88
2018-05-31T05:39:02.637Z,28.23
2018-05-31T05:41:30.122Z,29.52
2018-05-31T05:43:57.729Z,27.95
2018-05-31T05:46:25.211Z,27.85
2018-05-31T05:48:52.691Z,27.60
2018-05-31T05:51:20.960Z,27.98
2018-05-31T05:53:49.206Z,27.52
2018-05-31T05:56:16.702Z,26.73
2018-05-31T05:58:44.300Z,26.67
2018-05-31T06:01:11.792Z,26.27
2018-05-31T06:03:39.272Z,26.37
2018-05-31T06:06:07.543Z,25.98
2018-05-31T06:08:35.779Z,25.58
2018-05-31T06:11:03.277Z,26.90
2018-05-31T06:13:31.567Z,25.85
2018-05-31T06:15:59.069Z,26.40
2018-05-31T06:18:26.563Z,25.80
2018-05-31T06:20:54.889Z,26.70
2018-05-31T06:23:23.192Z,23.77
2018-05-31T06:25:50.694Z,23.80
2018-05-31T06:28:18.219Z,24.87
2018-05-31T06:30:45.714Z,23.30
2018-05-31T06:33:13.206Z,24.52
2018-05-31T06:35:40.695Z,23.80
2018-05-31T06:38:08.180Z,21.25
2018-05-31T06:40:36.460Z,23.15
2018-05-31T06:43:03.937Z,22.15
2018-05-31T06:45:31.411Z,21.17
2018-05-31T06:47:58.899Z,19.90
2018-05-31T06:50:27.203Z,21.12
2018-05-31T06:52:55.457Z,20.92
2018-05-31T06:55:23.019Z,21.05
2018-05-31T06:57:50.492Z,20.95
2018-05-31T07:00:18.725Z,19.70
2018-05-31T07:02:46.201Z,20.73
2018-05-31T07:05:13.678Z,20.15
2018-05-31T07:07:41.918Z,19.85
2018-05-31T07:10:09.392Z,18.90
2018-05-31T07:12:36.869Z,17.90
2018-05-31T07:15:05.166Z,20.23
2018-05-31T07:17:32.653Z,19.80
2018-05-31T07:20:00.142Z,20.27
2018-05-31T07:22:27.672Z,21.08
2018-05-31T07:24:55.174Z,20.45
2018-05-31T07:27:23.416Z,19.02
2018-05-31T07:29:50.874Z,20.80
2018-05-31T07:32:18.354Z,22.08
2018-05-31T07:34:46.603Z,20.05
2018-05-31T07:37:14.089Z,22.98
2018-05-31T07:39:41.578Z,20.25
2018-05-31T07:42:09.064Z,19.50
2018-05-31T07:44:36.542Z,19.00
2018-05-31T07:47:04.067Z,18.95
2018-05-31T07:49:31.556Z,18.75
2018-05-31T07:51:59.049Z,18.45
2018-05-31T07:54:27.298Z,18.40
2018-05-31T07:56:54.779Z,17.17
2018-05-31T07:59:23.026Z,17.87
2018-05-31T08:01:50.498Z,18.80
2018-05-31T08:04:18.003Z,17.50
2018-05-31T08:06:45.465Z,17.62
2018-05-31T08:09:12.935Z,17.10
2018-05-31T08:11:40.482Z,17.10
2018-05-31T08:14:08.033Z,17.15
2018-05-31T08:16:35.572Z,16.85
2018-05-31T08:19:03.047Z,17.62
2018-05-31T08:21:30.527Z,18.75
2018-05-31T08:23:58.054Z,21.25
2018-05-31T08:26:25.518Z,20.35
2018-05-31T08:28:52.990Z,18.95
2018-05-31T08:31:20.465Z,18.60
2018-05-31T08:33:47.944Z,18.87
2018-05-31T08:36:15.466Z,19.15
2018-05-31T08:38:42.943Z,17.15
2018-05-31T08:41:10.471Z,17.37
2018-05-31T08:43:37.965Z,16.90
2018-05-31T08:46:05.466Z,17.33
2018-05-31T08:48:32.951Z,16.45
2018-05-31T08:51:00.449Z,15.23
2018-05-31T08:53:27.907Z,15.13
2018-05-31T08:55:55.392Z,16.15
2018-05-31T08:58:23.645Z,15.70
2018-05-31T09:00:51.114Z,15.98
2018-05-31T09:03:19.379Z,13.95
2018-05-31T09:05:47.605Z,14.02
2018-05-31T09:08:15.138Z,12.37
2018-05-31T09:10:42.613Z,12.20
2018-05-31T09:13:10.106Z,13.70
2018-05-31T09:15:37.591Z,13.13
2018-05-31T09:18:05.841Z,12.55
2018-05-31T09:20:33.322Z,12.65
2018-05-31T09:23:01.582Z,13.18
2018-05-31T09:25:29.062Z,11.95
2018-05-31T09:27:57.305Z,10.43
2018-05-31T09:30:24.785Z,10.70
2018-05-31T09:32:53.029Z,11.43
2018-05-31T09:35:20.542Z,10.95
2018-05-31T09:37:48.014Z,10.15
2018-05-31T09:40:15.529Z,8.98
2018-05-31T09:42:43.012Z,9.32
2018-05-31T09:45:10.487Z,10.40
2018-05-31T09:47:37.995Z,10.40
2018-05-31T09:50:05.502Z,10.15
2018-05-31T09:52:32.973Z,9.30
2018-05-31T09:55:00.433Z,11.23
2018-05-31T09:57:27.915Z,10.40
2018-05-31T09:59:55.414Z,10.45
2018-05-31T10:02:23.687Z,10.45
2018-05-31T10:04:51.943Z,11.00
2018-05-31T10:07:19.431Z,8.40
2018-05-31T10:09:46.906Z,8.45
2018-05-31T10:12:14.406Z,9.60
2018-05-31T10:14:41.881Z,10.02
2018-05-31T10:17:10.179Z,9.77
2018-05-31T10:19:37.638Z,10.02
2018-05-31T10:22:05.131Z,9.73
2018-05-31T10:24:32.618Z,8.93
2018-05-31T10:27:00.131Z,8.63
2018-05-31T10:29:27.642Z,10.27
2018-05-31T10:31:55.941Z,10.68
2018-05-31T10:34:23.426Z,12.60
2018-05-31T10:36:50.890Z,11.15
2018-05-31T10:39:18.392Z,10.60
2018-05-31T10:41:46.642Z,9.68
2018-05-31T10:44:14.127Z,9.75
2018-05-31T10:46:42.366Z,10.20
2018-05-31T10:49:09.841Z,9.90
2018-05-31T10:51:37.309Z,10.13
2018-05-31T10:54:05.586Z,9.85
2018-05-31T10:56:33.849Z,9.40
2018-05-31T10:59:01.321Z,9.00
2018-05-31T11:01:29.590Z,10.00
2018-05-31T11:03:57.050Z,10.07
2018-05-31T11:06:24.530Z,10.02
2018-05-31T11:08:52.108Z,10.13
2018-05-31T11:11:19.584Z,10.63
2018-05-31T11:13:47.055Z,10.80
2018-05-31T11:16:14.525Z,11.27
2018-05-31T11:18:42.007Z,10.20
2018-05-31T11:21:10.254Z,11.25
2018-05-31T11:23:37.728Z,10.68
2018-05-31T11:26:05.259Z,10.98
2018-05-31T11:28:32.742Z,9.55
2018-05-31T11:31:00.224Z,9.43
2018-05-31T11:33:28.454Z,9.32
2018-05-31T11:35:56.205Z,10.18
2018-05-31T11:38:23.677Z,9.65
2018-05-31T11:40:51.146Z,10.30
2018-05-31T11:43:18.635Z,9.27
2018-05-31T11:45:46.869Z,10.77
2018-05-31T11:48:14.363Z,9.38
2018-05-31T11:50:42.655Z,11.02
2018-05-31T11:53:10.678Z,9.63
2018-05-31T11:55:38.205Z,10.45
2018-05-31T11:58:05.696Z,9.82
2018-05-31T12:00:33.207Z,9.43
2018-05-31T12:03:00.663Z,10.05
2018-05-31T12:05:28.171Z,10.10
2018-05-31T12:07:55.688Z,10.52
2018-05-31T12:10:23.157Z,10.27
2018-05-31T12:12:51.394Z,10.32
2018-05-31T12:15:18.903Z,10.35
2018-05-31T12:17:46.399Z,9.82
2018-05-31T12:20:14.679Z,9.75
2018-05-31T12:22:42.919Z,9.40
2018-05-31T12:25:10.447Z,10.05
2018-05-31T12:27:37.932Z,10.10
2018-05-31T12:30:05.431Z,8.48
2018-05-31T12:32:33.670Z,9.10
2018-05-31T12:35:01.158Z,9.23
2018-05-31T12:37:29.405Z,8.98
2018-05-31T12:39:56.878Z,8.00
2018-05-31T12:42:25.122Z,8.80
2018-05-31T12:44:52.602Z,8.70
2018-05-31T12:47:20.883Z,8.07
2018-05-31T12:49:48.438Z,8.02
2018-05-31T12:52:15.920Z,8.65
2018-05-31T12:54:43.399Z,7.55
2018-05-31T12:57:10.893Z,8.40
2018-05-31T12:59:38.362Z,8.50
2018-05-31T13:02:05.851Z,9.25
2018-05-31T13:04:34.099Z,8.05
2018-05-31T13:07:01.569Z,8.07
2018-05-31T13:09:29.829Z,8.98
2018-05-31T13:11:59.139Z,8.10
2018-05-31T13:14:26.643Z,9.15
2018-05-31T13:16:54.149Z,8.75
2018-05-31T13:19:21.638Z,8.30
2018-05-31T13:21:49.881Z,8.20
2018-05-31T13:24:17.388Z,7.82
2018-05-31T13:26:44.856Z,8.27
2018-05-31T13:29:12.336Z,8.68
2018-05-31T13:31:39.826Z,8.38
2018-05-31T13:34:08.053Z,8.32
2018-05-31T13:36:35.523Z,7.93
2018-05-31T13:39:03.001Z,7.90
2018-05-31T13:41:30.469Z,7.45
2018-05-31T13:43:57.954Z,6.75
2018-05-31T13:46:25.449Z,6.75
2018-05-31T13:48:52.910Z,7.00
2018-05-31T13:51:20.386Z,6.30
2018-05-31T13:53:47.879Z,6.50
2018-05-31T13:56:15.342Z,6.05
2018-05-31T13:58:42.793Z,6.32
2018-05-31T14:01:10.297Z,6.22
2018-05-31T14:03:37.789Z,6.82
2018-05-31T14:06:06.019Z,6.12
2018-05-31T14:08:34.266Z,6.22
2018-05-31T14:11:01.764Z,6.30
2018-05-31T14:13:29.236Z,6.25
2018-05-31T14:15:56.723Z,6.87
2018-05-31T14:18:24.964Z,7.10
2018-05-31T14:20:52.442Z,6.50
2018-05-31T14:23:20.678Z,7.05
2018-05-31T14:25:48.162Z,7.45
2018-05-31T14:28:15.650Z,7.90
2018-05-31T14:30:43.142Z,8.32
2018-05-31T14:33:10.609Z,8.13
2018-05-31T14:35:38.115Z,9.02
2018-05-31T14:38:06.362Z,9.20
2018-05-31T14:40:33.850Z,9.18
2018-05-31T14:43:02.098Z,8.05
2018-05-31T14:45:29.574Z,9.15
2018-05-31T14:47:57.818Z,11.30
2018-05-31T14:50:26.169Z,10.80
2018-05-31T14:52:53.676Z,11.02
2018-05-31T14:55:21.141Z,10.38
2018-05-31T14:57:49.405Z,9.75
2018-05-31T15:00:16.883Z,9.02
2018-05-31T15:02:45.142Z,9.65
2018-05-31T15:05:12.652Z,9.55
2018-05-31T15:07:40.145Z,11.70
2018-05-31T15:10:07.634Z,11.70
2018-05-31T15:12:35.861Z,14.55
2018-05-31T15:15:03.354Z,11.32
2018-05-31T15:17:30.883Z,11.63
2018-05-31T15:19:58.449Z,13.05
2018-05-31T15:22:25.926Z,12.98
2018-05-31T15:24:54.176Z,12.20
2018-05-31T15:27:21.661Z,12.23
2018-05-31T15:29:49.905Z,11.12
2018-05-31T15:32:17.402Z,10.80
2018-05-31T15:34:45.653Z,10.88
2018-05-31T15:37:13.156Z,11.65
2018-05-31T15:39:40.650Z,12.23
2018-05-31T15:42:08.178Z,12.27
2018-05-31T15:44:35.653Z,11.68
2018-05-31T15:47:03.119Z,12.57
2018-05-31T15:49:30.603Z,12.43
2018-05-31T15:51:58.061Z,13.62
2018-05-31T15:54:25.546Z,13.02
2018-05-31T15:56:53.138Z,12.82
2018-05-31T15:59:21.402Z,12.63
2018-05-31T16:01:48.893Z,10.30
2018-05-31T16:04:16.362Z,11.63
2018-05-31T16:06:43.881Z,9.80
2018-05-31T16:09:11.361Z,9.45
2018-05-31T16:11:38.826Z,10.50
2018-05-31T16:14:06.310Z,10.70
2018-05-31T16:16:34.545Z,10.40
2018-05-31T16:19:02.080Z,10.57
2018-05-31T16:21:29.561Z,10.70
2018-05-31T16:23:57.076Z,10.77
2018-05-31T16:26:25.306Z,10.45
2018-05-31T16:28:52.811Z,12.75
2018-05-31T16:31:20.346Z,10.77
2018-05-31T16:33:47.829Z,9.30
2018-05-31T16:36:15.318Z,9.10
2018-05-31T16:38:42.806Z,8.75
2018-05-31T16:41:10.278Z,7.60
2018-05-31T16:43:38.505Z,7.72
2018-05-31T16:46:05.985Z,8.15
2018-05-31T16:48:33.447Z,8.63
2018-05-31T16:51:00.925Z,7.50
2018-05-31T16:53:28.438Z,7.25
2018-05-31T16:55:55.897Z,6.95
2018-05-31T16:58:23.408Z,7.75
2018-05-31T17:00:51.633Z,7.10
2018-05-31T17:03:19.105Z,8.25
2018-05-31T17:05:46.590Z,7.40
2018-05-31T17:08:14.838Z,6.65
2018-05-31T17:10:42.326Z,8.18
2018-05-31T17:13:10.583Z,7.30
2018-05-31T17:15:38.091Z,6.82
2018-05-31T17:18:05.678Z,7.37
2018-05-31T17:20:33.172Z,7.30
2018-05-31T17:23:00.642Z,7.78
2018-05-31T17:25:28.878Z,7.72
2018-05-31T17:27:56.354Z,7.93
2018-05-31T17:30:23.814Z,8.38
2018-05-31T17:32:51.293Z,8.68
2018-05-31T17:35:18.769Z,8.57
2018-05-31T17:37:46.254Z,8.90
2018-05-31T17:40:13.727Z,9.70
2018-05-31T17:42:41.232Z,9.45
2018-05-31T17:45:08.780Z,9.32
2018-05-31T17:47:37.026Z,9.30
2018-05-31T17:50:04.496Z,10.70
2018-05-31T17:52:32.735Z,9.68
2018-05-31T17:55:00.242Z,10.50
2018-05-31T17:57:28.491Z,10.38
2018-05-31T17:59:56.346Z,10.70
2018-05-31T18:02:23.828Z,11.27
2018-05-31T18:04:52.074Z,10.98
2018-05-31T18:07:19.599Z,11.57
2018-05-31T18:09:47.082Z,11.18
2018-05-31T18:12:14.668Z,12.68
2018-05-31T18:14:42.268Z,11.57
2018-05-31T18:17:09.759Z,11.63
2018-05-31T18:19:37.241Z,11.18
2018-05-31T18:22:04.717Z,12.80
2018-05-31T18:24:32.973Z,11.55
2018-05-31T18:27:00.446Z,11.23
2018-05-31T18:29:27.931Z,11.70
2018-05-31T18:31:55.396Z,12.07
2018-05-31T18:34:22.877Z,13.62
2018-05-31T18:36:51.129Z,12.68
2018-05-31T18:39:18.638Z,12.70
2018-05-31T18:41:46.149Z,13.52
2018-05-31T18:44:13.634Z,12.82
2018-05-31T18:46:41.101Z,12.90
2018-05-31T18:49:08.571Z,13.13
2018-05-31T18:51:36.049Z,12.85
2018-05-31T18:54:04.282Z,12.85
2018-05-31T18:56:31.757Z,13.13
2018-05-31T18:58:59.227Z,13.40
2018-05-31T19:01:27.466Z,14.25
2018-05-31T19:03:55.001Z,14.05
2018-05-31T19:06:22.463Z,14.07
2018-05-31T19:08:49.981Z,13.40
2018-05-31T19:11:18.585Z,15.18
2018-05-31T19:13:51.597Z,14.98
2018-05-31T19:16:19.092Z,14.93
2018-05-31T19:18:53.092Z,14.20
2018-05-31T19:21:20.700Z,13.80
2018-05-31T19:23:49.681Z,15.18
2018-05-31T19:26:17.936Z,15.05
2018-05-31T19:28:45.420Z,13.60
2018-05-31T19:31:12.890Z,14.45
2018-05-31T19:33:40.394Z,14.18
2018-05-31T19:36:13.484Z,13.38
2018-05-31T19:38:40.942Z,15.52
2018-05-31T19:41:08.430Z,14.02
2018-05-31T19:43:42.274Z,15.52
2018-05-31T19:46:09.781Z,14.80
2018-05-31T19:48:38.017Z,14.57
2018-05-31T19:51:05.482Z,14.85
2018-05-31T19:53:38.684Z,14.40
2018-05-31T19:56:06.138Z,14.45
2018-05-31T19:58:39.355Z,14.18
2018-05-31T20:01:12.622Z,14.80
2018-05-31T20:03:40.098Z,13.65
2018-05-31T20:06:07.562Z,14.38
2018-05-31T20:08:35.830Z,14.02
2018-05-31T20:11:03.355Z,14.63
2018-05-31T20:13:30.855Z,13.98
2018-05-31T20:15:58.319Z,14.07
2018-05-31T20:18:26.579Z,13.57
2018-05-31T20:20:54.111Z,14.43
2018-05-31T20:23:21.549Z,14.35
2018-05-31T20:25:49.018Z,14.25
2018-05-31T20:28:16.502Z,14.00
2018-05-31T20:30:44.012Z,14.32
2018-05-31T20:33:11.478Z,14.55
2018-05-31T20:35:38.969Z,15.77
2018-05-31T20:38:06.439Z,16.52
2018-05-31T20:40:36.864Z,16.75
2018-05-31T20:43:04.471Z,15.57
2018-05-31T20:45:31.961Z,16.65
2018-05-31T20:48:00.515Z,16.55
2018-05-31T20:50:27.974Z,16.60
2018-05-31T20:52:55.455Z,17.55
2018-05-31T20:55:22.949Z,15.98
2018-05-31T20:57:50.467Z,16.55
2018-05-31T21:00:17.943Z,16.23
2018-05-31T21:02:45.418Z,17.50
2018-05-31T21:05:13.669Z,16.85
2018-05-31T21:07:41.146Z,17.70
2018-05-31T21:10:08.622Z,18.10
2018-05-31T21:12:36.872Z,17.55
2018-05-31T21:15:04.366Z,17.17
2018-05-31T21:17:31.866Z,16.92
2018-05-31T21:19:59.359Z,17.08
2018-05-31T21:22:27.616Z,16.73
2018-05-31T21:24:55.091Z,16.35
2018-05-31T21:27:23.361Z,18.05
2018-05-31T21:29:50.830Z,18.37
2018-05-31T21:32:19.054Z,18.27
2018-05-31T21:34:46.537Z,20.30
2018-05-31T21:37:14.014Z,19.85
2018-05-31T21:39:42.266Z,20.90
2018-05-31T21:42:09.758Z,19.98
2018-05-31T21:44:38.008Z,22.30
2018-05-31T21:47:05.478Z,22.45
2018-05-31T21:49:33.731Z,19.60
2018-05-31T21:52:02.001Z,22.27
2018-05-31T21:54:29.480Z,21.95
2018-05-31T21:56:56.945Z,20.92
2018-05-31T21:59:25.193Z,22.23
2018-05-31T22:01:52.676Z,22.98
2018-05-31T22:04:21.063Z,23.90
2018-05-31T22:06:49.322Z,23.55
2018-05-31T22:09:16.785Z,21.58
2018-05-31T22:11:44.622Z,21.73
2018-05-31T22:14:12.079Z,21.83
2018-05-31T22:16:39.579Z,22.23
2018-05-31T22:19:07.823Z,20.92
2018-05-31T22:21:36.798Z,21.48
2018-05-31T22:24:04.276Z,21.98
2018-05-31T22:26:31.780Z,21.98
2018-05-31T22:28:59.247Z,23.73
2018-05-31T22:31:26.720Z,23.23
2018-05-31T22:33:54.219Z,24.23
2018-05-31T22:36:21.717Z,19.65
2018-05-31T22:38:49.203Z,22.40
2018-05-31T22:41:16.678Z,20.83
2018-05-31T22:43:44.164Z,24.73
2018-05-31T22:46:12.394Z,25.75
2018-05-31T22:48:39.887Z,22.80
2018-05-31T22:51:07.355Z,24.30
2018-05-31T22:53:35.609Z,24.25
2018-05-31T22:56:03.085Z,27.55
2018-05-31T22:58:31.338Z,24.00
2018-05-31T23:00:58.831Z,25.75
2018-05-31T23:03:27.098Z,25.05
2018-05-31T23:05:55.381Z,25.48
2018-05-31T23:08:24.366Z,23.35
2018-05-31T23:10:51.906Z,23.65
2018-05-31T23:13:19.403Z,21.27
2018-05-31T23:15:46.887Z,25.12
2018-05-31T23:18:14.379Z,24.70
2018-05-31T23:20:41.841Z,24.17
2018-05-31T23:23:10.107Z,25.17
2018-05-31T23:25:37.568Z,24.92
2018-05-31T23:28:05.045Z,25.45
2018-05-31T23:30:33.308Z,24.40
2018-05-31T23:33:01.579Z,24.23
2018-05-31T23:35:29.046Z,24.02
2018-05-31T23:37:57.321Z,24.92
2018-05-31T23:40:25.563Z,25.62
2018-05-31T23:42:53.044Z,27.65
2018-05-31T23:45:20.622Z,25.52
2018-05-31T23:47:48.875Z,26.87
2018-05-31T23:50:16.341Z,26.10
2018-05-31T23:52:44.581Z,27.95
2018-05-31T23:55:12.071Z,28.87
2018-05-31T23:57:39.535Z,28.25
